UPC1301 UAAA-UZTT
Flight info
| Callsign | UPC1301 |
|---|---|
| Flight time | 1h 20m |
| Altitude | FL420 |
| Route | LAKEL L135 MAMIR P984 TISIB |
| Aircraft | C750/M-SBDE3FGHRWXY/S |
Departure
| Time | 2026-04-21 15:21 |
|---|---|
| Airport | Almaty International Airport (UAAA) |
Arrival
| Time | 2026-04-21 16:42 |
|---|---|
| Airport | Tashkent International Airport (UZTT) |
| Time | Latitude | Longitude | Altitude | Speed | Heading |
|---|---|---|---|---|---|
| 2026-04-21 15:05 | 43.34426 | 77.01325 | 2219 ft | 0 kts | 246° |
| 2026-04-21 15:13 | 43.34424 | 77.01320 | 2222 ft | 2 kts | 246° |
| 2026-04-21 15:13 | 43.34408 | 77.01300 | 2219 ft | 4 kts | 188° |
| 2026-04-21 15:14 | 43.34371 | 77.01316 | 2221 ft | 7 kts | 156° |
| 2026-04-21 15:14 | 43.34317 | 77.01349 | 2222 ft | 10 kts | 156° |
| 2026-04-21 15:14 | 43.34245 | 77.01397 | 2223 ft | 12 kts | 136° |
| 2026-04-21 15:14 | 43.34262 | 77.01490 | 2222 ft | 12 kts | 65° |
| 2026-04-21 15:15 | 43.34296 | 77.01598 | 2223 ft | 13 kts | 66° |
| 2026-04-21 15:15 | 43.34353 | 77.01612 | 2222 ft | 10 kts | 338° |
| 2026-04-21 15:15 | 43.34429 | 77.01566 | 2222 ft | 14 kts | 337° |
| 2026-04-21 15:15 | 43.34523 | 77.01507 | 2221 ft | 16 kts | 337° |
| 2026-04-21 15:16 | 43.34638 | 77.01463 | 2222 ft | 18 kts | 344° |
| 2026-04-21 15:16 | 43.34763 | 77.01465 | 2221 ft | 19 kts | 14° |
| 2026-04-21 15:16 | 43.34815 | 77.01583 | 2221 ft | 16 kts | 94° |
| 2026-04-21 15:16 | 43.34806 | 77.01749 | 2222 ft | 19 kts | 94° |
| 2026-04-21 15:17 | 43.34796 | 77.01943 | 2223 ft | 22 kts | 94° |
| 2026-04-21 15:17 | 43.34785 | 77.02162 | 2222 ft | 24 kts | 94° |
| 2026-04-21 15:17 | 43.34773 | 77.02397 | 2229 ft | 24 kts | 93° |
| 2026-04-21 15:17 | 43.34787 | 77.02626 | 2228 ft | 26 kts | 58° |
| 2026-04-21 15:18 | 43.34893 | 77.02842 | 2227 ft | 29 kts | 54° |
| 2026-04-21 15:18 | 43.35010 | 77.03077 | 2229 ft | 29 kts | 56° |
| 2026-04-21 15:18 | 43.35124 | 77.03309 | 2231 ft | 26 kts | 56° |
| 2026-04-21 15:18 | 43.35232 | 77.03527 | 2231 ft | 29 kts | 56° |
| 2026-04-21 15:19 | 43.35350 | 77.03769 | 2229 ft | 29 kts | 56° |
| 2026-04-21 15:19 | 43.35433 | 77.03979 | 2227 ft | 15 kts | 113° |
| 2026-04-21 15:19 | 43.35366 | 77.03984 | 2225 ft | 9 kts | 196° |
| 2026-04-21 15:19 | 43.35295 | 77.03956 | 2225 ft | 12 kts | 196° |
| 2026-04-21 15:20 | 43.35214 | 77.03918 | 2228 ft | 13 kts | 205° |
| 2026-04-21 15:20 | 43.35147 | 77.03806 | 2228 ft | 10 kts | 236° |
| 2026-04-21 15:20 | 43.34969 | 77.03444 | 2229 ft | 103 kts | 236° |
| 2026-04-21 15:20 | 43.34422 | 77.02328 | 2336 ft | 163 kts | 235° |
| 2026-04-21 15:21 | 43.33723 | 77.00921 | 2785 ft | 192 kts | 236° |
| 2026-04-21 15:21 | 43.32995 | 76.99228 | 3271 ft | 221 kts | 239° |
| 2026-04-21 15:21 | 43.32152 | 76.97330 | 3848 ft | 247 kts | 237° |
| 2026-04-21 15:21 | 43.31186 | 76.95246 | 4430 ft | 271 kts | 240° |
| 2026-04-21 15:22 | 43.30812 | 76.92707 | 5330 ft | 276 kts | 274° |
| 2026-04-21 15:22 | 43.31385 | 76.90249 | 6468 ft | 274 kts | 302° |
| 2026-04-21 15:22 | 43.32785 | 76.88500 | 7454 ft | 277 kts | 330° |
| 2026-04-21 15:22 | 43.34544 | 76.87423 | 8564 ft | 279 kts | 336° |
| 2026-04-21 15:23 | 43.36357 | 76.86427 | 9603 ft | 284 kts | 336° |
| 2026-04-21 15:23 | 43.38223 | 76.85384 | 10032 ft | 303 kts | 334° |
| 2026-04-21 15:23 | 43.40178 | 76.84264 | 10003 ft | 303 kts | 334° |
| 2026-04-21 15:23 | 43.42093 | 76.83177 | 9997 ft | 294 kts | 334° |
| 2026-04-21 15:24 | 43.43968 | 76.82104 | 9982 ft | 290 kts | 333° |
| 2026-04-21 15:24 | 43.45581 | 76.80561 | 9951 ft | 283 kts | 310° |
| 2026-04-21 15:24 | 43.46615 | 76.78255 | 10468 ft | 280 kts | 290° |
| 2026-04-21 15:24 | 43.47330 | 76.75839 | 11700 ft | 272 kts | 290° |
| 2026-04-21 15:25 | 43.48080 | 76.73372 | 12233 ft | 290 kts | 290° |
| 2026-04-21 15:25 | 43.48875 | 76.70697 | 12466 ft | 314 kts | 290° |
| 2026-04-21 15:25 | 43.49697 | 76.67900 | 13322 ft | 315 kts | 289° |
| 2026-04-21 15:25 | 43.50520 | 76.65109 | 14159 ft | 317 kts | 289° |
| 2026-04-21 15:26 | 43.51354 | 76.62280 | 14883 ft | 320 kts | 289° |
| 2026-04-21 15:26 | 43.52371 | 76.59531 | 15520 ft | 329 kts | 302° |
| 2026-04-21 15:26 | 43.53981 | 76.57263 | 16298 ft | 337 kts | 317° |
| 2026-04-21 15:26 | 43.56061 | 76.55685 | 17049 ft | 347 kts | 333° |
| 2026-04-21 15:27 | 43.58405 | 76.54796 | 17837 ft | 355 kts | 343° |
| 2026-04-21 15:27 | 43.60832 | 76.54116 | 18584 ft | 358 kts | 343° |
| 2026-04-21 15:27 | 43.63284 | 76.53419 | 19258 ft | 365 kts | 346° |
| 2026-04-21 15:27 | 43.65864 | 76.53575 | 19884 ft | 382 kts | 6° |
| 2026-04-21 15:28 | 43.68388 | 76.54874 | 20616 ft | 397 kts | 25° |
| 2026-04-21 15:28 | 43.70540 | 76.57316 | 21322 ft | 411 kts | 45° |
| 2026-04-21 15:28 | 43.71984 | 76.60561 | 21985 ft | 422 kts | 65° |
| 2026-04-21 15:28 | 43.72600 | 76.64542 | 22665 ft | 429 kts | 88° |
| 2026-04-21 15:29 | 43.72176 | 76.68607 | 23341 ft | 431 kts | 110° |
| 2026-04-21 15:29 | 43.70755 | 76.72221 | 23910 ft | 429 kts | 131° |
| 2026-04-21 15:29 | 43.68758 | 76.75278 | 24400 ft | 432 kts | 137° |
| 2026-04-21 15:29 | 43.66631 | 76.78232 | 24874 ft | 438 kts | 139° |
| 2026-04-21 15:30 | 43.64464 | 76.81228 | 25302 ft | 447 kts | 138° |
| 2026-04-21 15:30 | 43.62300 | 76.84365 | 25762 ft | 454 kts | 137° |
| 2026-04-21 15:30 | 43.60080 | 76.87484 | 26192 ft | 459 kts | 142° |
| 2026-04-21 15:30 | 43.57516 | 76.90065 | 26687 ft | 458 kts | 153° |
| 2026-04-21 15:31 | 43.54680 | 76.92034 | 27149 ft | 457 kts | 164° |
| 2026-04-21 15:31 | 43.51672 | 76.93376 | 27638 ft | 455 kts | 173° |
| 2026-04-21 15:31 | 43.48570 | 76.94074 | 28130 ft | 452 kts | 183° |
| 2026-04-21 15:31 | 43.45456 | 76.94126 | 28582 ft | 448 kts | 192° |
| 2026-04-21 15:32 | 43.42353 | 76.93729 | 29062 ft | 451 kts | 195° |
| 2026-04-21 15:32 | 43.39205 | 76.93329 | 29556 ft | 458 kts | 195° |
| 2026-04-21 15:32 | 43.36022 | 76.92964 | 30030 ft | 464 kts | 194° |
| 2026-04-21 15:32 | 43.32796 | 76.92588 | 30513 ft | 467 kts | 195° |
| 2026-04-21 15:33 | 43.29552 | 76.92184 | 30742 ft | 476 kts | 195° |
| 2026-04-21 15:33 | 43.26219 | 76.91701 | 30721 ft | 486 kts | 198° |
| 2026-04-21 15:33 | 43.22935 | 76.90669 | 30869 ft | 483 kts | 206° |
| 2026-04-21 15:33 | 43.19831 | 76.89118 | 31606 ft | 468 kts | 213° |
| 2026-04-21 15:34 | 43.16977 | 76.87186 | 32467 ft | 452 kts | 220° |
| 2026-04-21 15:34 | 43.14383 | 76.84894 | 33276 ft | 437 kts | 226° |
| 2026-04-21 15:34 | 43.11981 | 76.82420 | 34091 ft | 430 kts | 227° |
| 2026-04-21 15:34 | 43.09596 | 76.79988 | 34720 ft | 429 kts | 227° |
| 2026-04-21 15:35 | 43.07201 | 76.77561 | 35189 ft | 430 kts | 226° |
| 2026-04-21 15:35 | 43.04808 | 76.75126 | 35724 ft | 430 kts | 226° |
| 2026-04-21 15:35 | 43.02411 | 76.72683 | 36294 ft | 431 kts | 226° |
| 2026-04-21 15:35 | 43.00009 | 76.70238 | 36795 ft | 431 kts | 226° |
| 2026-04-21 15:36 | 42.97605 | 76.67803 | 37286 ft | 432 kts | 226° |
| 2026-04-21 15:36 | 42.95197 | 76.65352 | 37808 ft | 431 kts | 226° |
| 2026-04-21 15:36 | 42.92996 | 76.62656 | 38291 ft | 423 kts | 234° |
| 2026-04-21 15:36 | 42.91107 | 76.59635 | 38686 ft | 416 kts | 241° |
| 2026-04-21 15:37 | 42.89546 | 76.56371 | 39129 ft | 409 kts | 247° |
| 2026-04-21 15:37 | 42.88299 | 76.52911 | 39472 ft | 406 kts | 252° |
| 2026-04-21 15:37 | 42.87140 | 76.49411 | 39826 ft | 407 kts | 251° |
| 2026-04-21 15:37 | 42.85956 | 76.45919 | 40324 ft | 406 kts | 251° |
| 2026-04-21 15:38 | 42.84773 | 76.42426 | 40629 ft | 408 kts | 251° |
| 2026-04-21 15:38 | 42.83596 | 76.38917 | 40834 ft | 409 kts | 251° |
| 2026-04-21 15:38 | 42.82421 | 76.35398 | 41228 ft | 408 kts | 251° |
| 2026-04-21 15:38 | 42.81241 | 76.31889 | 41637 ft | 410 kts | 250° |
| 2026-04-21 15:39 | 42.80042 | 76.28350 | 41907 ft | 413 kts | 250° |
| 2026-04-21 15:39 | 42.78836 | 76.24781 | 42078 ft | 421 kts | 250° |
| 2026-04-21 15:39 | 42.76336 | 76.17379 | 42072 ft | 441 kts | 250° |
| 2026-04-21 15:40 | 42.73715 | 76.09677 | 42072 ft | 458 kts | 249° |
| 2026-04-21 15:40 | 42.71003 | 76.01704 | 42071 ft | 469 kts | 249° |
| 2026-04-21 15:41 | 42.68262 | 75.93693 | 42055 ft | 468 kts | 249° |
| 2026-04-21 15:41 | 42.65527 | 75.85694 | 42051 ft | 466 kts | 249° |
| 2026-04-21 15:42 | 42.62793 | 75.77742 | 42037 ft | 466 kts | 249° |
| 2026-04-21 15:42 | 42.60050 | 75.69769 | 42046 ft | 469 kts | 249° |
| 2026-04-21 15:43 | 42.57291 | 75.61794 | 42042 ft | 467 kts | 249° |
| 2026-04-21 15:43 | 42.54535 | 75.53831 | 42038 ft | 467 kts | 249° |
| 2026-04-21 15:44 | 42.51767 | 75.45866 | 42050 ft | 468 kts | 249° |
| 2026-04-21 15:44 | 42.48995 | 75.37910 | 42036 ft | 468 kts | 249° |
| 2026-04-21 15:45 | 42.46215 | 75.29956 | 42071 ft | 470 kts | 248° |
| 2026-04-21 15:45 | 42.43420 | 75.21977 | 42071 ft | 469 kts | 249° |
| 2026-04-21 15:46 | 42.41137 | 75.13795 | 42089 ft | 465 kts | 255° |
| 2026-04-21 15:46 | 42.39001 | 75.05552 | 42102 ft | 465 kts | 254° |
| 2026-04-21 15:47 | 42.36893 | 74.97316 | 42099 ft | 463 kts | 254° |
| 2026-04-21 15:47 | 42.34766 | 74.89096 | 42092 ft | 465 kts | 254° |
| 2026-04-21 15:48 | 42.32637 | 74.80878 | 42106 ft | 464 kts | 254° |
| 2026-04-21 15:48 | 42.30511 | 74.72694 | 42117 ft | 462 kts | 253° |
| 2026-04-21 15:49 | 42.28378 | 74.64521 | 42116 ft | 464 kts | 254° |
| 2026-04-21 15:49 | 42.26230 | 74.56313 | 42120 ft | 465 kts | 253° |
| 2026-04-21 15:50 | 42.24078 | 74.48124 | 42120 ft | 464 kts | 253° |
| 2026-04-21 15:50 | 42.21923 | 74.39942 | 42114 ft | 464 kts | 253° |
| 2026-04-21 15:51 | 42.19761 | 74.31770 | 42103 ft | 463 kts | 253° |
| 2026-04-21 15:51 | 42.17605 | 74.23651 | 42106 ft | 460 kts | 253° |
| 2026-04-21 15:52 | 42.15453 | 74.15547 | 42094 ft | 461 kts | 253° |
| 2026-04-21 15:52 | 42.13283 | 74.07441 | 42085 ft | 461 kts | 253° |
| 2026-04-21 15:53 | 42.11111 | 73.99326 | 42078 ft | 461 kts | 253° |
| 2026-04-21 15:53 | 42.08934 | 73.91235 | 42090 ft | 462 kts | 253° |
| 2026-04-21 15:54 | 42.06745 | 73.83115 | 42091 ft | 463 kts | 253° |
| 2026-04-21 15:54 | 42.04575 | 73.74985 | 42091 ft | 461 kts | 254° |
| 2026-04-21 15:55 | 42.02525 | 73.66818 | 42090 ft | 462 kts | 253° |
| 2026-04-21 15:55 | 42.00456 | 73.58649 | 42086 ft | 463 kts | 253° |
| 2026-04-21 15:56 | 41.98391 | 73.50486 | 42080 ft | 463 kts | 254° |
| 2026-04-21 15:56 | 41.96308 | 73.42306 | 42083 ft | 464 kts | 253° |
| 2026-04-21 15:57 | 41.94218 | 73.34110 | 42076 ft | 464 kts | 253° |
| 2026-04-21 15:57 | 41.92126 | 73.25951 | 42068 ft | 464 kts | 253° |
| 2026-04-21 15:58 | 41.90024 | 73.17763 | 42060 ft | 465 kts | 253° |
| 2026-04-21 15:58 | 41.87914 | 73.09584 | 42061 ft | 464 kts | 253° |
| 2026-04-21 15:59 | 41.85802 | 73.01417 | 42052 ft | 465 kts | 253° |
| 2026-04-21 15:59 | 41.83683 | 72.93255 | 42043 ft | 465 kts | 253° |
| 2026-04-21 16:00 | 41.81557 | 72.85091 | 42041 ft | 465 kts | 253° |
| 2026-04-21 16:00 | 41.79424 | 72.76923 | 42039 ft | 465 kts | 253° |
| 2026-04-21 16:01 | 41.77283 | 72.68754 | 42045 ft | 466 kts | 253° |
| 2026-04-21 16:01 | 41.75134 | 72.60582 | 42045 ft | 466 kts | 253° |
| 2026-04-21 16:02 | 41.72983 | 72.52433 | 42050 ft | 465 kts | 253° |
| 2026-04-21 16:02 | 41.70826 | 72.44286 | 42042 ft | 464 kts | 253° |
| 2026-04-21 16:03 | 41.68668 | 72.36156 | 42047 ft | 465 kts | 253° |
| 2026-04-21 16:03 | 41.66500 | 72.28028 | 42052 ft | 465 kts | 253° |
| 2026-04-21 16:04 | 41.64332 | 72.19917 | 42057 ft | 463 kts | 253° |
| 2026-04-21 16:04 | 41.62169 | 72.11855 | 42046 ft | 462 kts | 253° |
| 2026-04-21 16:05 | 41.60000 | 72.03796 | 42009 ft | 463 kts | 253° |
| 2026-04-21 16:05 | 41.57833 | 71.95778 | 41242 ft | 454 kts | 253° |
| 2026-04-21 16:06 | 41.56774 | 71.91871 | 40667 ft | 441 kts | 253° |
| 2026-04-21 16:06 | 41.55753 | 71.88106 | 40091 ft | 425 kts | 253° |
| 2026-04-21 16:06 | 41.54765 | 71.84476 | 39548 ft | 410 kts | 253° |
| 2026-04-21 16:06 | 41.53811 | 71.80965 | 39009 ft | 395 kts | 254° |
| 2026-04-21 16:07 | 41.52596 | 71.76500 | 38287 ft | 375 kts | 254° |
| 2026-04-21 16:07 | 41.52009 | 71.74347 | 37959 ft | 366 kts | 254° |
| 2026-04-21 16:07 | 41.51153 | 71.71206 | 37487 ft | 358 kts | 254° |
| 2026-04-21 16:07 | 41.50306 | 71.68101 | 37014 ft | 357 kts | 253° |
| 2026-04-21 16:08 | 41.48569 | 71.61738 | 36075 ft | 381 kts | 253° |
| 2026-04-21 16:08 | 41.47639 | 71.58351 | 35559 ft | 397 kts | 252° |
| 2026-04-21 16:08 | 41.46676 | 71.54854 | 35028 ft | 407 kts | 251° |
| 2026-04-21 16:09 | 41.45701 | 71.51317 | 34495 ft | 410 kts | 251° |
| 2026-04-21 16:09 | 41.44717 | 71.47749 | 33952 ft | 412 kts | 251° |
| 2026-04-21 16:09 | 41.43731 | 71.44171 | 33377 ft | 413 kts | 251° |
| 2026-04-21 16:09 | 41.42740 | 71.40587 | 32831 ft | 414 kts | 251° |
| 2026-04-21 16:10 | 41.41743 | 71.36982 | 32286 ft | 416 kts | 251° |
| 2026-04-21 16:10 | 41.40738 | 71.33356 | 31737 ft | 418 kts | 251° |
| 2026-04-21 16:10 | 41.39730 | 71.29723 | 31186 ft | 421 kts | 251° |
| 2026-04-21 16:10 | 41.38714 | 71.26058 | 30624 ft | 424 kts | 251° |
| 2026-04-21 16:11 | 41.37689 | 71.22371 | 30063 ft | 427 kts | 251° |
| 2026-04-21 16:11 | 41.36662 | 71.18682 | 29459 ft | 423 kts | 251° |
| 2026-04-21 16:11 | 41.35647 | 71.15046 | 28927 ft | 417 kts | 251° |
| 2026-04-21 16:11 | 41.34643 | 71.11453 | 28367 ft | 413 kts | 250° |
| 2026-04-21 16:12 | 41.33650 | 71.07899 | 27829 ft | 410 kts | 250° |
| 2026-04-21 16:12 | 41.32655 | 71.04348 | 27298 ft | 409 kts | 250° |
| 2026-04-21 16:12 | 41.31672 | 71.00836 | 26772 ft | 403 kts | 250° |
| 2026-04-21 16:12 | 41.30696 | 70.97360 | 26237 ft | 400 kts | 250° |
| 2026-04-21 16:13 | 41.29728 | 70.93925 | 25718 ft | 397 kts | 250° |
| 2026-04-21 16:13 | 41.28768 | 70.90513 | 25195 ft | 393 kts | 250° |
| 2026-04-21 16:13 | 41.27816 | 70.87128 | 24687 ft | 390 kts | 249° |
| 2026-04-21 16:13 | 41.26868 | 70.83770 | 24175 ft | 388 kts | 249° |
| 2026-04-21 16:14 | 41.25927 | 70.80439 | 23667 ft | 384 kts | 249° |
| 2026-04-21 16:14 | 41.24995 | 70.77149 | 23121 ft | 379 kts | 249° |
| 2026-04-21 16:14 | 41.24071 | 70.73893 | 22626 ft | 377 kts | 249° |
| 2026-04-21 16:14 | 41.23148 | 70.70638 | 22131 ft | 378 kts | 249° |
| 2026-04-21 16:15 | 41.22223 | 70.67379 | 21641 ft | 377 kts | 249° |
| 2026-04-21 16:15 | 41.21299 | 70.64132 | 21140 ft | 376 kts | 248° |
| 2026-04-21 16:15 | 41.20377 | 70.60898 | 20651 ft | 375 kts | 248° |
| 2026-04-21 16:15 | 41.19455 | 70.57667 | 20148 ft | 374 kts | 248° |
| 2026-04-21 16:16 | 41.18537 | 70.54450 | 19653 ft | 373 kts | 248° |
| 2026-04-21 16:16 | 41.17620 | 70.51243 | 19163 ft | 373 kts | 247° |
| 2026-04-21 16:16 | 41.16704 | 70.48040 | 18676 ft | 372 kts | 247° |
| 2026-04-21 16:16 | 41.15788 | 70.44845 | 18167 ft | 371 kts | 247° |
| 2026-04-21 16:17 | 41.14871 | 70.41654 | 17659 ft | 370 kts | 247° |
| 2026-04-21 16:17 | 41.13959 | 70.38481 | 17174 ft | 368 kts | 247° |
| 2026-04-21 16:17 | 41.13049 | 70.35313 | 16690 ft | 367 kts | 247° |
| 2026-04-21 16:17 | 41.12141 | 70.32161 | 16202 ft | 366 kts | 248° |
| 2026-04-21 16:18 | 41.11234 | 70.29020 | 15708 ft | 365 kts | 248° |
| 2026-04-21 16:18 | 41.10331 | 70.25891 | 15242 ft | 365 kts | 248° |
| 2026-04-21 16:18 | 41.09312 | 70.22860 | 15001 ft | 354 kts | 241° |
| 2026-04-21 16:18 | 41.08120 | 70.19987 | 15000 ft | 360 kts | 239° |
| 2026-04-21 16:19 | 41.06926 | 70.17072 | 14990 ft | 363 kts | 240° |
| 2026-04-21 16:19 | 41.05732 | 70.14114 | 14760 ft | 366 kts | 240° |
| 2026-04-21 16:19 | 41.04528 | 70.11159 | 14449 ft | 364 kts | 240° |
| 2026-04-21 16:19 | 41.03321 | 70.08224 | 14134 ft | 363 kts | 240° |
| 2026-04-21 16:20 | 41.02115 | 70.05289 | 13804 ft | 363 kts | 240° |
| 2026-04-21 16:20 | 41.00926 | 70.02383 | 13462 ft | 359 kts | 240° |
| 2026-04-21 16:20 | 40.99741 | 69.99493 | 13140 ft | 358 kts | 240° |
| 2026-04-21 16:20 | 40.98549 | 69.96599 | 12853 ft | 357 kts | 240° |
| 2026-04-21 16:21 | 40.97363 | 69.93716 | 12560 ft | 357 kts | 240° |
| 2026-04-21 16:21 | 40.96183 | 69.90849 | 12242 ft | 356 kts | 240° |
| 2026-04-21 16:21 | 40.95001 | 69.87981 | 11930 ft | 354 kts | 240° |
| 2026-04-21 16:21 | 40.93827 | 69.85135 | 11630 ft | 355 kts | 240° |
| 2026-04-21 16:22 | 40.92641 | 69.82265 | 11309 ft | 355 kts | 240° |
| 2026-04-21 16:22 | 40.91696 | 69.79276 | 10975 ft | 356 kts | 256° |
| 2026-04-21 16:22 | 40.91529 | 69.76046 | 11018 ft | 354 kts | 269° |
| 2026-04-21 16:22 | 40.91572 | 69.72772 | 11028 ft | 359 kts | 270° |
| 2026-04-21 16:23 | 40.91649 | 69.69493 | 11027 ft | 358 kts | 270° |
| 2026-04-21 16:23 | 40.91698 | 69.66212 | 11025 ft | 358 kts | 269° |
| 2026-04-21 16:23 | 40.91726 | 69.62917 | 10842 ft | 361 kts | 269° |
| 2026-04-21 16:23 | 40.91765 | 69.59630 | 10552 ft | 356 kts | 270° |
| 2026-04-21 16:24 | 40.91813 | 69.56365 | 10248 ft | 355 kts | 270° |
| 2026-04-21 16:24 | 40.91856 | 69.53111 | 10008 ft | 352 kts | 270° |
| 2026-04-21 16:24 | 40.91891 | 69.49911 | 10002 ft | 342 kts | 269° |
| 2026-04-21 16:24 | 40.91928 | 69.46884 | 9991 ft | 319 kts | 269° |
| 2026-04-21 16:25 | 40.91963 | 69.44061 | 9986 ft | 298 kts | 269° |
| 2026-04-21 16:25 | 40.91992 | 69.41385 | 9987 ft | 287 kts | 268° |
| 2026-04-21 16:25 | 40.92018 | 69.38723 | 9950 ft | 294 kts | 268° |
| 2026-04-21 16:25 | 40.92046 | 69.36002 | 9777 ft | 300 kts | 269° |
| 2026-04-21 16:26 | 40.92078 | 69.33243 | 9531 ft | 302 kts | 269° |
| 2026-04-21 16:26 | 40.92108 | 69.30471 | 9268 ft | 301 kts | 269° |
| 2026-04-21 16:26 | 40.92134 | 69.27817 | 9015 ft | 299 kts | 269° |
| 2026-04-21 16:26 | 40.92161 | 69.25128 | 8979 ft | 288 kts | 269° |
| 2026-04-21 16:27 | 40.92187 | 69.22501 | 8983 ft | 287 kts | 269° |
| 2026-04-21 16:27 | 40.92210 | 69.19849 | 8983 ft | 292 kts | 269° |
| 2026-04-21 16:27 | 40.92235 | 69.17163 | 8997 ft | 289 kts | 268° |
| 2026-04-21 16:27 | 40.92260 | 69.14531 | 8996 ft | 286 kts | 269° |
| 2026-04-21 16:28 | 40.92282 | 69.11896 | 8993 ft | 287 kts | 268° |
| 2026-04-21 16:28 | 40.92303 | 69.09265 | 8992 ft | 288 kts | 269° |
| 2026-04-21 16:28 | 40.92327 | 69.06620 | 8989 ft | 287 kts | 269° |
| 2026-04-21 16:28 | 40.92643 | 69.04023 | 8924 ft | 292 kts | 290° |
| 2026-04-21 16:29 | 40.93798 | 69.01818 | 8951 ft | 297 kts | 315° |
| 2026-04-21 16:29 | 40.95583 | 69.00472 | 8962 ft | 300 kts | 342° |
| 2026-04-21 16:29 | 40.97630 | 68.99969 | 9007 ft | 299 kts | 352° |
| 2026-04-21 16:29 | 40.99695 | 68.99600 | 9002 ft | 299 kts | 352° |
| 2026-04-21 16:30 | 41.01748 | 68.99218 | 8997 ft | 298 kts | 351° |
| 2026-04-21 16:30 | 41.03794 | 68.98807 | 8997 ft | 301 kts | 351° |
| 2026-04-21 16:30 | 41.05865 | 68.98394 | 8995 ft | 301 kts | 351° |
| 2026-04-21 16:30 | 41.07927 | 68.98040 | 8972 ft | 296 kts | 355° |
| 2026-04-21 16:31 | 41.09926 | 68.98508 | 8939 ft | 297 kts | 23° |
| 2026-04-21 16:31 | 41.11586 | 69.00078 | 8939 ft | 295 kts | 49° |
| 2026-04-21 16:31 | 41.12577 | 69.02444 | 8732 ft | 296 kts | 74° |
| 2026-04-21 16:31 | 41.12944 | 69.05106 | 8533 ft | 294 kts | 83° |
| 2026-04-21 16:32 | 41.13230 | 69.07785 | 8273 ft | 295 kts | 83° |
| 2026-04-21 16:32 | 41.13528 | 69.10468 | 7982 ft | 294 kts | 82° |
| 2026-04-21 16:32 | 41.13841 | 69.13141 | 7691 ft | 292 kts | 82° |
| 2026-04-21 16:32 | 41.14144 | 69.15768 | 7406 ft | 284 kts | 82° |
| 2026-04-21 16:33 | 41.14429 | 69.18292 | 7136 ft | 270 kts | 82° |
| 2026-04-21 16:33 | 41.14698 | 69.20678 | 6888 ft | 255 kts | 82° |
| 2026-04-21 16:33 | 41.14956 | 69.22951 | 6665 ft | 245 kts | 82° |
| 2026-04-21 16:33 | 41.15206 | 69.25160 | 6452 ft | 242 kts | 82° |
| 2026-04-21 16:34 | 41.15456 | 69.27372 | 6243 ft | 243 kts | 82° |
| 2026-04-21 16:34 | 41.15705 | 69.29583 | 6018 ft | 244 kts | 82° |
| 2026-04-21 16:34 | 41.15956 | 69.31815 | 5791 ft | 246 kts | 82° |
| 2026-04-21 16:34 | 41.16210 | 69.34070 | 5566 ft | 249 kts | 82° |
| 2026-04-21 16:35 | 41.16464 | 69.36340 | 5330 ft | 250 kts | 82° |
| 2026-04-21 16:35 | 41.16720 | 69.38621 | 5099 ft | 250 kts | 82° |
| 2026-04-21 16:35 | 41.16975 | 69.40903 | 4874 ft | 251 kts | 83° |
| 2026-04-21 16:35 | 41.17230 | 69.43197 | 4632 ft | 252 kts | 83° |
| 2026-04-21 16:36 | 41.17603 | 69.45464 | 4199 ft | 253 kts | 68° |
| 2026-04-21 16:36 | 41.18704 | 69.47195 | 3919 ft | 239 kts | 34° |
| 2026-04-21 16:36 | 41.20138 | 69.48008 | 3913 ft | 216 kts | 9° |
| 2026-04-21 16:36 | 41.21606 | 69.47918 | 3578 ft | 211 kts | 341° |
| 2026-04-21 16:37 | 41.22867 | 69.47060 | 3284 ft | 193 kts | 316° |
| 2026-04-21 16:37 | 41.23726 | 69.45928 | 2992 ft | 159 kts | 308° |
| 2026-04-21 16:37 | 41.24414 | 69.45011 | 2973 ft | 123 kts | 307° |
| 2026-04-21 16:37 | 41.24973 | 69.44247 | 2986 ft | 112 kts | 303° |
| 2026-04-21 16:38 | 41.25521 | 69.43492 | 3002 ft | 117 kts | 304° |
| 2026-04-21 16:38 | 41.26097 | 69.42697 | 3005 ft | 122 kts | 305° |
| 2026-04-21 16:38 | 41.26673 | 69.41858 | 2999 ft | 122 kts | 296° |
| 2026-04-21 16:38 | 41.27014 | 69.40879 | 3004 ft | 114 kts | 278° |
| 2026-04-21 16:39 | 41.27115 | 69.39858 | 3002 ft | 112 kts | 265° |
| 2026-04-21 16:39 | 41.27052 | 69.38791 | 2837 ft | 119 kts | 257° |
| 2026-04-21 16:39 | 41.26926 | 69.37726 | 2628 ft | 116 kts | 256° |
| 2026-04-21 16:39 | 41.26798 | 69.36664 | 2382 ft | 116 kts | 256° |
| 2026-04-21 16:40 | 41.26679 | 69.35647 | 2235 ft | 108 kts | 256° |
| 2026-04-21 16:40 | 41.26565 | 69.34650 | 2063 ft | 113 kts | 258° |
| 2026-04-21 16:40 | 41.26461 | 69.33590 | 1958 ft | 116 kts | 258° |
| 2026-04-21 16:40 | 41.26336 | 69.32527 | 1778 ft | 120 kts | 264° |
| 2026-04-21 16:41 | 41.26213 | 69.31413 | 1583 ft | 124 kts | 262° |
| 2026-04-21 16:41 | 41.26084 | 69.30270 | 1413 ft | 124 kts | 262° |
| 2026-04-21 16:41 | 41.25968 | 69.29221 | 1378 ft | 104 kts | 262° |
| 2026-04-21 16:41 | 41.25884 | 69.28465 | 1377 ft | 52 kts | 262° |
| 2026-04-21 16:42 | 41.25857 | 69.28217 | 1379 ft | 25 kts | 263° |
| 2026-04-21 16:42 | 41.25829 | 69.27940 | 1379 ft | 36 kts | 261° |
| 2026-04-21 16:42 | 41.25792 | 69.27607 | 1376 ft | 25 kts | 266° |
| 2026-04-21 16:42 | 41.25882 | 69.27453 | 1378 ft | 21 kts | 318° |
| 2026-04-21 16:43 | 41.25989 | 69.27327 | 1377 ft | 20 kts | 319° |
| 2026-04-21 16:43 | 41.26070 | 69.27305 | 1377 ft | 11 kts | 81° |
| 2026-04-21 16:43 | 41.26081 | 69.27395 | 1376 ft | 9 kts | 79° |
| 2026-04-21 16:43 | 41.26091 | 69.27478 | 1377 ft | 9 kts | 81° |
| 2026-04-21 16:44 | 41.26129 | 69.27511 | 1379 ft | 8 kts | 351° |
| 2026-04-21 16:44 | 41.26149 | 69.27441 | 1377 ft | 9 kts | 262° |
| 2026-04-21 16:44 | 41.26147 | 69.27425 | 1377 ft | 0 kts | 262° |